KR-0404 weather

Korea Maritime & Ocean University Heliport
Busan (Yeoung-do), Busan Gwang'yeogsi, South Korea

Public forecast

Using degrees Celsius for public forecast. Weather courtesy of forecast.io.

Closest aviation weather report (METAR) to Korea Maritime & Ocean University Heliport

Closest report is Gimhae International Airport, 9.7 nm (17.9 km) NW. Retrieved 2020/02/19 09:00 UTC (39 minutes ago):

RKPK 190900Z 19007KT CAVOK 08/M05 Q1028

Closest aviation forecast (TAF) to Korea Maritime & Ocean University Heliport

Closest forecast is Gimhae International Airport, 9.7 nm (17.9 km) NW. Retrieved 2020/02/19 06:00 UTC (4 hours ago):

TAF RKPK 190500Z 1906/2012 33006KT CAVOK TN01/1922Z TX15/2006Z